createdAt,value
2016-11-07T00:00:22.072Z,1001.23
2016-11-07T00:01:02.766Z,1001.24
2016-11-07T00:01:43.471Z,1001.24
2016-11-07T00:02:24.105Z,1001.25
2016-11-07T00:03:04.786Z,1001.25
2016-11-07T00:03:45.432Z,1001.27
2016-11-07T00:04:26.156Z,1001.24
2016-11-07T00:05:06.831Z,1001.18
2016-11-07T00:05:47.478Z,1001.21
2016-11-07T00:06:28.176Z,1001.25
2016-11-07T00:07:08.893Z,1001.23
2016-11-07T00:07:49.590Z,1001.25
2016-11-07T00:08:30.282Z,1001.25
2016-11-07T00:09:10.915Z,1001.25
2016-11-07T00:09:51.606Z,1001.22
2016-11-07T00:10:32.300Z,1001.21
2016-11-07T00:11:12.994Z,1001.22
2016-11-07T00:11:53.698Z,1001.23
2016-11-07T00:12:34.383Z,1001.23
2016-11-07T00:13:15.098Z,1001.18
2016-11-07T00:13:55.800Z,1001.18
2016-11-07T00:14:36.479Z,1001.19
2016-11-07T00:15:17.146Z,1001.18
2016-11-07T00:15:57.836Z,1001.19
2016-11-07T00:16:38.544Z,1001.17
2016-11-07T00:17:19.288Z,1001.14
2016-11-07T00:17:59.947Z,1001.15
2016-11-07T00:18:40.660Z,1001.12
2016-11-07T00:19:21.342Z,1001.14
2016-11-07T00:20:02.042Z,1001.14
2016-11-07T00:20:42.798Z,1001.12
2016-11-07T00:21:23.480Z,1001.12
2016-11-07T00:22:04.166Z,1001.1
2016-11-07T00:22:44.871Z,1001.15
2016-11-07T00:23:25.564Z,1001.15
2016-11-07T00:24:06.221Z,1001.14
2016-11-07T00:24:46.935Z,1001.13
2016-11-07T00:25:27.617Z,1001.14
2016-11-07T00:26:08.330Z,1001.11
2016-11-07T00:26:48.994Z,1001.11
2016-11-07T00:27:29.718Z,1001.1
2016-11-07T00:28:10.405Z,1001.12
2016-11-07T00:28:51.101Z,1001.08
2016-11-07T00:29:31.737Z,1001.1
2016-11-07T00:30:12.422Z,1001.08
2016-11-07T00:30:53.079Z,1001.08
2016-11-07T00:31:33.761Z,1001.09
2016-11-07T00:32:14.450Z,1001.06
2016-11-07T00:32:55.121Z,1001.05
2016-11-07T00:33:35.838Z,1001.08
2016-11-07T00:34:16.550Z,1001.03
2016-11-07T00:34:57.289Z,1001.08
2016-11-07T00:35:37.957Z,1001.05
2016-11-07T00:36:18.636Z,1001.05
2016-11-07T00:36:59.303Z,1001.07
2016-11-07T00:37:39.963Z,1001.09
2016-11-07T00:38:20.636Z,1001.04
2016-11-07T00:39:01.367Z,1001.07
2016-11-07T00:39:42.020Z,1001.05
2016-11-07T00:40:22.703Z,1001.02
2016-11-07T00:41:03.363Z,1001.04
2016-11-07T00:41:44.047Z,1001
2016-11-07T00:42:24.755Z,1001.02
2016-11-07T00:43:05.438Z,1001.02
2016-11-07T00:43:46.105Z,1000.98
2016-11-07T00:44:26.735Z,1001.03
2016-11-07T00:45:07.409Z,1000.99
2016-11-07T00:45:48.101Z,1000.99
2016-11-07T00:46:28.769Z,1001
2016-11-07T00:47:09.419Z,1000.98
2016-11-07T00:47:50.059Z,1001.01
2016-11-07T00:48:30.771Z,1000.99
2016-11-07T00:49:11.438Z,1001.05
2016-11-07T00:49:52.142Z,1001.06
2016-11-07T00:50:32.783Z,1001.06
2016-11-07T00:51:13.514Z,1001.05
2016-11-07T00:51:54.188Z,1001.07
2016-11-07T00:52:34.854Z,1001.04
2016-11-07T00:53:15.549Z,1001.04
2016-11-07T00:53:56.282Z,1001.05
2016-11-07T00:54:36.968Z,1001.03
2016-11-07T00:55:17.601Z,1001.04
2016-11-07T00:55:58.299Z,1001.01
2016-11-07T00:56:38.994Z,1001.02
2016-11-07T00:57:19.684Z,1001.04
2016-11-07T00:58:00.351Z,1001.02
2016-11-07T00:58:41.019Z,1001
2016-11-07T00:59:21.698Z,1001.01
2016-11-07T01:00:02.410Z,1000.97
2016-11-07T01:00:43.125Z,1000.98
2016-11-07T01:01:23.771Z,1001
2016-11-07T01:02:04.446Z,1000.99
2016-11-07T01:02:45.170Z,1000.99
2016-11-07T01:03:25.842Z,1000.96
2016-11-07T01:04:06.521Z,1000.98
2016-11-07T01:04:47.173Z,1000.97
2016-11-07T01:05:27.880Z,1000.96
2016-11-07T01:06:08.554Z,1000.98
2016-11-07T01:06:49.289Z,1000.95
2016-11-07T01:07:29.990Z,1000.98
2016-11-07T01:08:10.673Z,1000.96
2016-11-07T01:08:51.350Z,1000.95
2016-11-07T01:09:32.048Z,1000.95
2016-11-07T01:10:12.713Z,1001
2016-11-07T01:10:53.369Z,1000.96
2016-11-07T01:11:34.070Z,1000.97
2016-11-07T01:12:14.762Z,1000.99
2016-11-07T01:12:55.437Z,1000.99
2016-11-07T01:13:36.124Z,1001
2016-11-07T01:14:16.827Z,1001.02
2016-11-07T01:14:57.536Z,1001.02
2016-11-07T01:15:38.234Z,1001
2016-11-07T01:16:18.921Z,1001
2016-11-07T01:16:59.609Z,1001
2016-11-07T01:17:40.324Z,1001.01
2016-11-07T01:18:21.024Z,1001
2016-11-07T01:19:01.743Z,1001
2016-11-07T01:19:42.445Z,1000.97
2016-11-07T01:20:23.175Z,1000.99
2016-11-07T01:21:03.853Z,1001.01
2016-11-07T01:21:44.584Z,1000.99
2016-11-07T01:22:25.244Z,1001.01
2016-11-07T01:23:05.936Z,1001.04
2016-11-07T01:23:46.590Z,1000.99
2016-11-07T01:24:27.267Z,1001
2016-11-07T01:25:07.920Z,1000.99
2016-11-07T01:25:48.615Z,1000.99
2016-11-07T01:26:29.317Z,1001.01
2016-11-07T01:27:09.966Z,1000.98
2016-11-07T01:27:50.662Z,1001.02
2016-11-07T01:28:31.339Z,1000.99
2016-11-07T01:29:12.016Z,1001.04
2016-11-07T01:29:52.708Z,1001.01
2016-11-07T01:30:33.429Z,1001.05
2016-11-07T01:31:14.076Z,1001.04
2016-11-07T01:31:54.739Z,1001.05
2016-11-07T01:32:35.401Z,1001.04
2016-11-07T01:33:16.095Z,1001.06
2016-11-07T01:33:56.771Z,1001.05
2016-11-07T01:34:37.430Z,1001.06
2016-11-07T01:35:18.126Z,1001.07
2016-11-07T01:35:58.835Z,1001.04
2016-11-07T01:36:39.480Z,1001.07
2016-11-07T01:37:20.168Z,1001.04
2016-11-07T01:38:00.856Z,1001.04
2016-11-07T01:38:41.501Z,1001.04
2016-11-07T01:39:22.159Z,1001.04
2016-11-07T01:40:02.877Z,1001.03
2016-11-07T01:40:43.626Z,1001.02
2016-11-07T01:41:24.321Z,1001.04
2016-11-07T01:42:05.005Z,1001.05
2016-11-07T01:42:45.701Z,1001.04
2016-11-07T01:43:26.362Z,1001.05
2016-11-07T01:44:07.052Z,1001.04
2016-11-07T01:44:47.712Z,1001.05
2016-11-07T01:45:28.429Z,1001.03
2016-11-07T01:46:09.104Z,1001.01
2016-11-07T01:46:49.766Z,1001.02
2016-11-07T01:47:30.405Z,1001
2016-11-07T01:48:11.036Z,1000.99
2016-11-07T01:48:51.732Z,1001
2016-11-07T01:49:32.437Z,1001
2016-11-07T01:50:13.148Z,1001.01
2016-11-07T01:50:53.824Z,1000.99
2016-11-07T01:51:34.537Z,1000.98
2016-11-07T01:52:15.193Z,1000.99
2016-11-07T01:52:55.895Z,1001.04
2016-11-07T01:53:36.569Z,1001.03
2016-11-07T01:54:17.257Z,1001.06
2016-11-07T01:54:57.932Z,1001.06
2016-11-07T01:55:38.653Z,1001.09
2016-11-07T01:56:19.359Z,1001.09
2016-11-07T01:57:00.037Z,1001.1
2016-11-07T01:57:40.737Z,1001.11
2016-11-07T01:58:21.457Z,1001.12
2016-11-07T01:59:02.082Z,1001.11
2016-11-07T01:59:42.798Z,1001.09
2016-11-07T02:00:23.531Z,1001.13
2016-11-07T02:01:04.196Z,1001.13
2016-11-07T02:01:44.911Z,1001.12
2016-11-07T02:02:25.623Z,1001.11
2016-11-07T02:03:06.297Z,1001.13
2016-11-07T02:03:46.975Z,1001.12
2016-11-07T02:04:27.652Z,1001.12
2016-11-07T02:05:08.316Z,1001.11
2016-11-07T02:05:49.027Z,1001.12
2016-11-07T02:06:29.654Z,1001.11
2016-11-07T02:07:10.327Z,1001.1
2016-11-07T02:07:51.014Z,1001.08
2016-11-07T02:08:31.727Z,1001.1
2016-11-07T02:09:12.370Z,1001.09
2016-11-07T02:09:52.991Z,1001.1
2016-11-07T02:10:33.644Z,1001.11
2016-11-07T02:11:14.299Z,1001.11
2016-11-07T02:11:54.953Z,1001.11
2016-11-07T02:12:35.610Z,1001.09
2016-11-07T02:13:16.310Z,1001.12
2016-11-07T02:13:56.998Z,1001.1
2016-11-07T02:14:37.677Z,1001.08
2016-11-07T02:15:18.364Z,1001.09
2016-11-07T02:15:59.032Z,1001.09
2016-11-07T02:16:39.695Z,1001.11
2016-11-07T02:17:20.416Z,1001.1
2016-11-07T02:18:01.127Z,1001.09
2016-11-07T02:18:41.832Z,1001.11
2016-11-07T02:19:22.501Z,1001.08
2016-11-07T02:20:03.173Z,1001.1
2016-11-07T02:20:43.894Z,1001.12
2016-11-07T02:21:24.590Z,1001.08
2016-11-07T02:22:05.253Z,1001.1
2016-11-07T02:22:45.961Z,1001.08
2016-11-07T02:23:26.652Z,1001.05
2016-11-07T02:24:07.329Z,1001.04
2016-11-07T02:24:48.045Z,1001.06
2016-11-07T02:25:28.765Z,1001.03
2016-11-07T02:26:09.451Z,1001.05
2016-11-07T02:26:50.181Z,1001.05
2016-11-07T02:27:30.830Z,1001.02
2016-11-07T02:28:11.518Z,1001.04
2016-11-07T02:28:52.174Z,1001.02
2016-11-07T02:29:32.864Z,1001.01
2016-11-07T02:30:13.585Z,1001.01
2016-11-07T02:30:54.250Z,1001.01
2016-11-07T02:31:34.898Z,1000.96
2016-11-07T02:32:15.607Z,1000.95
2016-11-07T02:32:56.248Z,1000.99
2016-11-07T02:33:36.910Z,1000.93
2016-11-07T02:34:17.569Z,1000.98
2016-11-07T02:34:58.246Z,1000.98
2016-11-07T02:35:38.929Z,1000.97
2016-11-07T02:36:19.591Z,1000.97
2016-11-07T02:37:00.305Z,1000.98
2016-11-07T02:37:40.990Z,1000.97
2016-11-07T02:38:21.668Z,1000.97
2016-11-07T02:39:02.312Z,1000.95
2016-11-07T02:39:42.981Z,1000.94
2016-11-07T02:40:23.711Z,1000.94
2016-11-07T02:41:04.367Z,1000.94
2016-11-07T02:41:45.087Z,1000.94
2016-11-07T02:42:25.736Z,1000.93
2016-11-07T02:43:06.444Z,1000.9
2016-11-07T02:43:47.157Z,1000.88
2016-11-07T02:44:27.863Z,1000.9
2016-11-07T02:45:08.599Z,1000.9
2016-11-07T02:45:49.277Z,1000.88
2016-11-07T02:46:29.923Z,1000.86
2016-11-07T02:47:10.595Z,1000.89
2016-11-07T02:47:51.280Z,1000.88
2016-11-07T02:48:31.934Z,1000.83
2016-11-07T02:49:12.653Z,1000.87
2016-11-07T02:49:53.346Z,1000.84
2016-11-07T02:50:34.066Z,1000.86
2016-11-07T02:51:14.742Z,1000.83
2016-11-07T02:51:55.411Z,1000.82
2016-11-07T02:52:36.112Z,1000.84
2016-11-07T02:53:16.770Z,1000.8
2016-11-07T02:53:57.430Z,1000.81
2016-11-07T02:54:38.074Z,1000.81
2016-11-07T02:55:18.807Z,1000.79
2016-11-07T02:55:59.461Z,1000.76
2016-11-07T02:56:40.171Z,1000.8
2016-11-07T02:57:20.813Z,1000.77
2016-11-07T02:58:01.503Z,1000.77
2016-11-07T02:58:42.219Z,1000.75
2016-11-07T02:59:22.913Z,1000.78
2016-11-07T03:00:03.615Z,1000.76
2016-11-07T03:00:44.255Z,1000.76
2016-11-07T03:01:24.982Z,1000.73
2016-11-07T03:02:05.638Z,1000.72
2016-11-07T03:02:46.274Z,1000.68
2016-11-07T03:03:26.957Z,1000.71
2016-11-07T03:04:07.695Z,1000.66
2016-11-07T03:04:48.356Z,1000.7
2016-11-07T03:05:29.054Z,1000.67
2016-11-07T03:06:09.710Z,1000.64
2016-11-07T03:06:50.362Z,1000.71
2016-11-07T03:07:31.045Z,1000.69
2016-11-07T03:08:11.703Z,1000.72
2016-11-07T03:08:52.449Z,1000.68
2016-11-07T03:09:33.124Z,1000.68
2016-11-07T03:10:13.841Z,1000.7
2016-11-07T03:10:54.569Z,1000.62
2016-11-07T03:11:35.248Z,1000.66
2016-11-07T03:12:16.005Z,1000.61
2016-11-07T03:12:56.675Z,1000.64
2016-11-07T03:13:37.396Z,1000.64
2016-11-07T03:14:18.060Z,1000.59
2016-11-07T03:14:58.744Z,1000.63
2016-11-07T03:15:39.382Z,1000.62
2016-11-07T03:16:20.093Z,1000.59
2016-11-07T03:17:00.777Z,1000.6
2016-11-07T03:17:41.459Z,1000.56
2016-11-07T03:18:22.177Z,1000.57
2016-11-07T03:19:02.861Z,1000.55
2016-11-07T03:19:43.580Z,1000.54
2016-11-07T03:20:24.284Z,1000.56
2016-11-07T03:21:04.966Z,1000.56
2016-11-07T03:21:45.636Z,1000.52
2016-11-07T03:22:26.347Z,1000.49
2016-11-07T03:23:07.045Z,1000.49
2016-11-07T03:23:47.750Z,1000.51
2016-11-07T03:24:28.481Z,1000.49
2016-11-07T03:25:09.158Z,1000.51
2016-11-07T03:25:49.851Z,1000.49
2016-11-07T03:26:30.517Z,1000.5
2016-11-07T03:27:11.185Z,1000.48
2016-11-07T03:27:51.856Z,1000.49
2016-11-07T03:28:32.568Z,1000.49
2016-11-07T03:29:13.251Z,1000.47
2016-11-07T03:29:53.904Z,1000.51
2016-11-07T03:30:34.629Z,1000.54
2016-11-07T03:31:15.356Z,1000.51
2016-11-07T03:31:56.036Z,1000.55
2016-11-07T03:32:36.718Z,1000.55
2016-11-07T03:33:17.406Z,1000.57
2016-11-07T03:33:58.130Z,1000.59
2016-11-07T03:34:38.779Z,1000.6
2016-11-07T03:35:19.471Z,1000.61
2016-11-07T03:36:00.145Z,1000.62
2016-11-07T03:36:40.798Z,1000.65
2016-11-07T03:37:21.510Z,1000.6
2016-11-07T03:38:02.243Z,1000.63
2016-11-07T03:38:42.920Z,1000.63
2016-11-07T03:39:23.599Z,1000.59
2016-11-07T03:40:04.304Z,1000.59
2016-11-07T03:40:44.990Z,1000.6
2016-11-07T03:41:25.631Z,1000.53
2016-11-07T03:42:06.355Z,1000.54
2016-11-07T03:42:47.088Z,1000.54
2016-11-07T03:43:27.718Z,1000.5
2016-11-07T03:44:08.406Z,1000.49
2016-11-07T03:44:49.089Z,1000.46
2016-11-07T03:45:29.777Z,1000.46
2016-11-07T03:46:10.517Z,1000.45
2016-11-07T03:46:51.172Z,1000.42
2016-11-07T03:47:31.870Z,1000.4
2016-11-07T03:48:12.531Z,1000.41
2016-11-07T03:48:53.256Z,1000.43
2016-11-07T03:49:33.890Z,1000.42
2016-11-07T03:50:14.591Z,1000.39
2016-11-07T03:50:55.260Z,1000.4
2016-11-07T03:51:35.957Z,1000.42
2016-11-07T03:52:16.623Z,1000.4
2016-11-07T03:52:57.268Z,1000.42
2016-11-07T03:53:37.975Z,1000.43
2016-11-07T03:54:18.617Z,1000.42
2016-11-07T03:54:59.280Z,1000.42
2016-11-07T03:55:40.025Z,1000.39
2016-11-07T03:56:20.664Z,1000.46
2016-11-07T03:57:01.376Z,1000.44
2016-11-07T03:57:42.058Z,1000.45
2016-11-07T03:58:22.788Z,1000.46
2016-11-07T03:59:03.478Z,1000.48
2016-11-07T03:59:44.138Z,1000.5
2016-11-07T04:00:24.780Z,1000.51
2016-11-07T04:01:05.440Z,1000.5
2016-11-07T04:01:46.117Z,1000.5
2016-11-07T04:02:26.808Z,1000.53
2016-11-07T04:03:07.476Z,1000.53
2016-11-07T04:03:48.157Z,1000.53
2016-11-07T04:04:28.813Z,1000.51
2016-11-07T04:05:09.549Z,1000.53
2016-11-07T04:05:50.264Z,1000.5
2016-11-07T04:06:30.926Z,1000.48
2016-11-07T04:07:11.618Z,1000.47
2016-11-07T04:07:52.266Z,1000.5
2016-11-07T04:08:32.979Z,1000.51
2016-11-07T04:09:13.634Z,1000.48
2016-11-07T04:09:54.360Z,1000.48
2016-11-07T04:10:34.976Z,1000.48
2016-11-07T04:11:15.673Z,1000.5
2016-11-07T04:11:56.369Z,1000.52
2016-11-07T04:12:37.013Z,1000.53
2016-11-07T04:13:17.687Z,1000.56
2016-11-07T04:13:58.407Z,1000.55
2016-11-07T04:14:39.116Z,1000.55
2016-11-07T04:15:19.791Z,1000.56
2016-11-07T04:16:00.532Z,1000.56
2016-11-07T04:16:41.209Z,1000.52
2016-11-07T04:17:21.919Z,1000.58
2016-11-07T04:18:02.610Z,1000.58
2016-11-07T04:18:43.303Z,1000.58
2016-11-07T04:19:23.978Z,1000.58
2016-11-07T04:20:04.695Z,1000.61
2016-11-07T04:20:45.371Z,1000.6
2016-11-07T04:21:26.081Z,1000.62
2016-11-07T04:22:06.693Z,1000.6
2016-11-07T04:22:47.381Z,1000.63
2016-11-07T04:23:28.018Z,1000.63
2016-11-07T04:24:08.695Z,1000.62
2016-11-07T04:24:49.377Z,1000.62
2016-11-07T04:25:30.046Z,1000.66
2016-11-07T04:26:10.735Z,1000.64
2016-11-07T04:26:51.456Z,1000.65
2016-11-07T04:27:32.128Z,1000.7
2016-11-07T04:28:12.798Z,1000.67
2016-11-07T04:28:53.482Z,1000.64
2016-11-07T04:29:34.194Z,1000.66
2016-11-07T04:30:14.876Z,1000.69
2016-11-07T04:30:55.586Z,1000.7
2016-11-07T04:31:36.312Z,1000.71
2016-11-07T04:32:17.004Z,1000.67
2016-11-07T04:32:57.697Z,1000.67
2016-11-07T04:33:38.339Z,1000.74
2016-11-07T04:34:19.023Z,1000.7
2016-11-07T04:34:59.711Z,1000.72
2016-11-07T04:35:40.400Z,1000.68
2016-11-07T04:36:21.042Z,1000.68
2016-11-07T04:37:01.774Z,1000.67
2016-11-07T04:37:42.484Z,1000.67
2016-11-07T04:38:23.194Z,1000.64
2016-11-07T04:39:03.894Z,1000.67
2016-11-07T04:39:44.640Z,1000.62
2016-11-07T04:40:25.286Z,1000.59
2016-11-07T04:41:05.973Z,1000.57
2016-11-07T04:41:46.638Z,1000.58
2016-11-07T04:42:27.368Z,1000.58
2016-11-07T04:43:08.062Z,1000.59
2016-11-07T04:43:48.758Z,1000.64
2016-11-07T04:44:29.447Z,1000.64
2016-11-07T04:45:10.123Z,1000.63
2016-11-07T04:45:50.817Z,1000.66
2016-11-07T04:46:31.508Z,1000.59
2016-11-07T04:47:12.215Z,1000.66
2016-11-07T04:47:52.885Z,1000.64
2016-11-07T04:48:33.570Z,1000.67
2016-11-07T04:49:14.248Z,1000.69
2016-11-07T04:49:54.929Z,1000.67
2016-11-07T04:50:35.588Z,1000.67
2016-11-07T04:51:16.285Z,1000.69
2016-11-07T04:51:56.982Z,1000.67
2016-11-07T04:52:37.675Z,1000.63
2016-11-07T04:53:18.382Z,1000.63
2016-11-07T04:53:59.047Z,1000.61
2016-11-07T04:54:39.758Z,1000.58
2016-11-07T04:55:20.474Z,1000.61
2016-11-07T04:56:01.142Z,1000.59
2016-11-07T04:56:41.846Z,1000.57
2016-11-07T04:57:22.516Z,1000.59
2016-11-07T04:58:03.187Z,1000.6
2016-11-07T04:58:43.850Z,1000.55
2016-11-07T04:59:24.570Z,1000.54
2016-11-07T05:00:05.250Z,1000.55
2016-11-07T05:00:45.931Z,1000.55
2016-11-07T05:01:26.633Z,1000.56
2016-11-07T05:02:07.312Z,1000.54
2016-11-07T05:02:48.019Z,1000.54
2016-11-07T05:03:28.676Z,1000.53
2016-11-07T05:04:09.339Z,1000.53
2016-11-07T05:04:50.052Z,1000.54
2016-11-07T05:05:30.766Z,1000.55
2016-11-07T05:06:11.409Z,1000.55
2016-11-07T05:06:52.096Z,1000.54
2016-11-07T05:07:32.775Z,1000.54
2016-11-07T05:08:13.451Z,1000.55
2016-11-07T05:08:54.166Z,1000.51
2016-11-07T05:09:34.845Z,1000.55
2016-11-07T05:10:15.555Z,1000.52
2016-11-07T05:10:56.244Z,1000.53
2016-11-07T05:11:36.930Z,1000.54
2016-11-07T05:12:17.637Z,1000.56
2016-11-07T05:12:58.303Z,1000.56
2016-11-07T05:13:38.963Z,1000.58
2016-11-07T05:14:19.664Z,1000.59
2016-11-07T05:15:00.310Z,1000.57
2016-11-07T05:15:41.034Z,1000.59
2016-11-07T05:16:21.698Z,1000.61
2016-11-07T05:17:02.393Z,1000.64
2016-11-07T05:17:43.091Z,1000.6
2016-11-07T05:18:23.763Z,1000.63
2016-11-07T05:19:04.463Z,1000.63
2016-11-07T05:19:45.185Z,1000.63
2016-11-07T05:20:25.808Z,1000.63
2016-11-07T05:21:06.468Z,1000.62
2016-11-07T05:21:47.172Z,1000.58
2016-11-07T05:22:27.828Z,1000.62
2016-11-07T05:23:08.519Z,1000.62
2016-11-07T05:23:49.218Z,1000.61
2016-11-07T05:24:29.900Z,1000.63
2016-11-07T05:25:10.615Z,1000.65
2016-11-07T05:25:51.323Z,1000.65
2016-11-07T05:26:31.987Z,1000.66
2016-11-07T05:27:12.671Z,1000.7
2016-11-07T05:27:53.363Z,1000.68
2016-11-07T05:28:34.070Z,1000.67
2016-11-07T05:29:14.762Z,1000.68
2016-11-07T05:29:55.473Z,1000.68
2016-11-07T05:30:36.121Z,1000.65
2016-11-07T05:31:16.825Z,1000.66
2016-11-07T05:31:57.518Z,1000.67
2016-11-07T05:32:38.201Z,1000.64
2016-11-07T05:33:18.862Z,1000.66
2016-11-07T05:33:59.563Z,1000.68
2016-11-07T05:34:40.238Z,1000.7
2016-11-07T05:35:20.944Z,1000.67
2016-11-07T05:36:01.643Z,1000.68
2016-11-07T05:36:42.328Z,1000.72
2016-11-07T05:37:22.978Z,1000.72
2016-11-07T05:38:03.668Z,1000.74
2016-11-07T05:38:44.328Z,1000.73
2016-11-07T05:39:25.031Z,1000.75
2016-11-07T05:40:05.688Z,1000.78
2016-11-07T05:40:46.408Z,1000.77
2016-11-07T05:41:27.145Z,1000.77
2016-11-07T05:42:07.807Z,1000.78
2016-11-07T05:42:48.476Z,1000.8
2016-11-07T05:43:29.160Z,1000.78
2016-11-07T05:44:09.823Z,1000.79
2016-11-07T05:44:50.484Z,1000.81
2016-11-07T05:45:31.168Z,1000.8
2016-11-07T05:46:11.848Z,1000.82
2016-11-07T05:46:52.528Z,1000.78
2016-11-07T05:47:33.207Z,1000.84
2016-11-07T05:48:13.926Z,1000.79
2016-11-07T05:48:54.590Z,1000.79
2016-11-07T05:49:35.256Z,1000.78
2016-11-07T05:50:15.911Z,1000.77
2016-11-07T05:50:56.578Z,1000.78
2016-11-07T05:51:37.252Z,1000.75
2016-11-07T05:52:17.955Z,1000.8
2016-11-07T05:52:58.612Z,1000.77
2016-11-07T05:53:39.347Z,1000.75
2016-11-07T05:54:20.034Z,1000.73
2016-11-07T05:55:00.687Z,1000.75
2016-11-07T05:55:41.359Z,1000.74
2016-11-07T05:56:22.020Z,1000.76
2016-11-07T05:57:02.715Z,1000.72
2016-11-07T05:57:43.422Z,1000.73
2016-11-07T05:58:24.135Z,1000.7
2016-11-07T05:59:04.827Z,1000.69
2016-11-07T05:59:45.503Z,1000.7
2016-11-07T06:00:26.203Z,1000.7
2016-11-07T06:01:06.846Z,1000.69
2016-11-07T06:01:47.516Z,1000.7
2016-11-07T06:02:28.215Z,1000.7
2016-11-07T06:03:08.854Z,1000.72
2016-11-07T06:03:49.518Z,1000.73
2016-11-07T06:04:30.163Z,1000.69
2016-11-07T06:05:10.869Z,1000.7
2016-11-07T06:05:51.541Z,1000.68
2016-11-07T06:06:32.203Z,1000.69
2016-11-07T06:07:12.892Z,1000.7
2016-11-07T06:07:53.562Z,1000.69
2016-11-07T06:08:34.224Z,1000.71
2016-11-07T06:09:14.886Z,1000.72
2016-11-07T06:09:55.541Z,1000.7
2016-11-07T06:10:36.239Z,1000.73
2016-11-07T06:11:16.961Z,1000.75
2016-11-07T06:11:57.660Z,1000.77
2016-11-07T06:12:38.356Z,1000.73
2016-11-07T06:13:19.052Z,1000.73
2016-11-07T06:13:59.745Z,1000.72
2016-11-07T06:14:40.393Z,1000.72
2016-11-07T06:15:21.082Z,1000.72
2016-11-07T06:16:01.781Z,1000.71
2016-11-07T06:16:42.450Z,1000.74
2016-11-07T06:17:23.105Z,1000.72
2016-11-07T06:18:03.779Z,1000.72
2016-11-07T06:18:44.481Z,1000.69
2016-11-07T06:19:25.158Z,1000.73
2016-11-07T06:20:05.836Z,1000.7
2016-11-07T06:20:46.521Z,1000.72
2016-11-07T06:21:27.242Z,1000.74
2016-11-07T06:22:07.928Z,1000.75
2016-11-07T06:22:48.630Z,1000.76
2016-11-07T06:23:29.284Z,1000.74
2016-11-07T06:24:09.974Z,1000.8
2016-11-07T06:24:50.679Z,1000.81
2016-11-07T06:25:31.364Z,1000.77
2016-11-07T06:26:12.060Z,1000.81
2016-11-07T06:26:53.546Z,1000.79
2016-11-07T06:27:33.382Z,1000.78
2016-11-07T06:28:14.016Z,1000.78
2016-11-07T06:28:54.690Z,1000.8
2016-11-07T06:29:35.349Z,1000.79
2016-11-07T06:30:16.010Z,1000.79
2016-11-07T06:30:56.715Z,1000.78
2016-11-07T06:31:37.436Z,1000.79
2016-11-07T06:32:18.083Z,1000.82
2016-11-07T06:32:58.754Z,1000.81
2016-11-07T06:33:39.430Z,1000.85
2016-11-07T06:34:20.140Z,1000.84
2016-11-07T06:35:00.786Z,1000.87
2016-11-07T06:35:41.464Z,1000.88
2016-11-07T06:36:22.174Z,1000.89
2016-11-07T06:37:02.815Z,1000.91
2016-11-07T06:37:43.515Z,1000.91
2016-11-07T06:38:24.193Z,1000.91
2016-11-07T06:39:04.864Z,1000.95
2016-11-07T06:39:45.533Z,1000.98
2016-11-07T06:40:26.196Z,1000.98
2016-11-07T06:41:06.924Z,1001.01
2016-11-07T06:41:47.580Z,1000.98
2016-11-07T06:42:28.291Z,1001
2016-11-07T06:43:08.962Z,1000.97
2016-11-07T06:43:49.666Z,1000.95
2016-11-07T06:44:30.318Z,1000.97
2016-11-07T06:45:11.018Z,1000.97
2016-11-07T06:45:51.705Z,1000.95
2016-11-07T06:46:32.411Z,1000.95
2016-11-07T06:47:13.125Z,1000.96
2016-11-07T06:47:53.849Z,1000.93
2016-11-07T06:48:34.573Z,1000.97
2016-11-07T06:49:15.248Z,1000.91
2016-11-07T06:49:55.902Z,1000.96
2016-11-07T06:50:36.611Z,1000.97
2016-11-07T06:51:17.309Z,1000.98
2016-11-07T06:51:57.984Z,1001.03
2016-11-07T06:52:38.611Z,1001.02
2016-11-07T06:53:19.289Z,1001.02
2016-11-07T06:53:59.981Z,1001.02
2016-11-07T06:54:40.662Z,1001.03
2016-11-07T06:55:21.337Z,1001.04
2016-11-07T06:56:01.976Z,1001.05
2016-11-07T06:56:42.676Z,1001.08
2016-11-07T06:57:23.387Z,1001.1
2016-11-07T06:58:04.094Z,1001.11
2016-11-07T06:58:44.797Z,1001.14
2016-11-07T06:59:25.450Z,1001.11
2016-11-07T07:00:06.151Z,1001.14
2016-11-07T07:00:46.758Z,1001.13
2016-11-07T07:01:27.489Z,1001.15
2016-11-07T07:02:08.165Z,1001.17
2016-11-07T07:02:48.859Z,1001.18
2016-11-07T07:03:29.558Z,1001.17
2016-11-07T07:04:10.280Z,1001.19
2016-11-07T07:04:50.973Z,1001.19
2016-11-07T07:05:31.678Z,1001.21
2016-11-07T07:06:12.338Z,1001.2
2016-11-07T07:06:53.001Z,1001.21
2016-11-07T07:07:33.668Z,1001.21
2016-11-07T07:08:14.395Z,1001.2
2016-11-07T07:08:55.056Z,1001.19
2016-11-07T07:09:35.701Z,1001.23
2016-11-07T07:10:16.392Z,1001.22
2016-11-07T07:10:57.044Z,1001.2
2016-11-07T07:11:37.724Z,1001.2
2016-11-07T07:12:18.385Z,1001.22
2016-11-07T07:12:59.106Z,1001.2
2016-11-07T07:13:39.823Z,1001.16
2016-11-07T07:14:20.498Z,1001.18
2016-11-07T07:15:01.124Z,1001.18
2016-11-07T07:15:41.865Z,1001.21
2016-11-07T07:16:22.514Z,1001.23
2016-11-07T07:17:03.252Z,1001.26
2016-11-07T07:17:43.920Z,1001.22
2016-11-07T07:18:24.616Z,1001.24
2016-11-07T07:19:05.347Z,1001.26
2016-11-07T07:19:46.043Z,1001.22
2016-11-07T07:20:26.713Z,1001.24
2016-11-07T07:21:07.439Z,1001.25
2016-11-07T07:21:48.209Z,1001.24
2016-11-07T07:22:28.863Z,1001.17
2016-11-07T07:23:09.530Z,1001.24
2016-11-07T07:23:50.231Z,1001.2
2016-11-07T07:24:30.882Z,1001.23
2016-11-07T07:25:11.536Z,1001.24
2016-11-07T07:25:52.235Z,1001.24
2016-11-07T07:26:32.914Z,1001.22
2016-11-07T07:27:13.631Z,1001.25
2016-11-07T07:27:54.410Z,1001.26
2016-11-07T07:28:35.810Z,1001.27
2016-11-07T07:29:16.521Z,1001.28
2016-11-07T07:29:57.269Z,1001.26
2016-11-07T07:30:37.958Z,1001.3
2016-11-07T07:31:18.661Z,1001.32
2016-11-07T07:31:59.335Z,1001.32
2016-11-07T07:32:40.025Z,1001.29
2016-11-07T07:33:20.741Z,1001.29
2016-11-07T07:34:01.421Z,1001.33
2016-11-07T07:34:42.092Z,1001.31
2016-11-07T07:35:22.801Z,1001.32
2016-11-07T07:36:03.472Z,1001.31
2016-11-07T07:36:44.171Z,1001.31
2016-11-07T07:37:24.902Z,1001.31
2016-11-07T07:38:05.583Z,1001.31
2016-11-07T07:38:46.273Z,1001.28
2016-11-07T07:39:27.009Z,1001.3
2016-11-07T07:40:07.696Z,1001.33
2016-11-07T07:40:48.381Z,1001.35
2016-11-07T07:41:29.125Z,1001.32
2016-11-07T07:42:09.838Z,1001.32
2016-11-07T07:42:50.517Z,1001.33
2016-11-07T07:43:31.327Z,1001.35
2016-11-07T07:44:12.033Z,1001.37
2016-11-07T07:44:52.768Z,1001.31
2016-11-07T07:45:33.490Z,1001.36
2016-11-07T07:46:14.258Z,1001.37
2016-11-07T07:46:55.028Z,1001.39
2016-11-07T07:47:35.779Z,1001.38
2016-11-07T07:48:17.484Z,1001.39
2016-11-07T07:48:58.312Z,1001.41
2016-11-07T07:49:39.566Z,1001.45
2016-11-07T07:50:20.306Z,1001.46
2016-11-07T07:51:01.037Z,1001.46
2016-11-07T07:51:41.733Z,1001.47
2016-11-07T07:52:22.412Z,1001.47
2016-11-07T07:53:03.105Z,1001.5
2016-11-07T07:53:43.813Z,1001.5
2016-11-07T07:54:24.479Z,1001.54
2016-11-07T07:55:06.159Z,1001.54
2016-11-07T07:55:46.870Z,1001.52
2016-11-07T07:56:27.530Z,1001.51
2016-11-07T07:57:08.273Z,1001.53
2016-11-07T07:57:48.969Z,1001.52
2016-11-07T07:58:29.714Z,1001.54
2016-11-07T07:59:10.363Z,1001.54
2016-11-07T07:59:51.075Z,1001.51
2016-11-07T08:00:31.759Z,1001.5
2016-11-07T08:01:12.452Z,1001.54
2016-11-07T08:01:53.101Z,1001.57
2016-11-07T08:02:33.853Z,1001.54
2016-11-07T08:03:14.532Z,1001.53
2016-11-07T08:03:55.206Z,1001.55
2016-11-07T08:04:35.943Z,1001.56
2016-11-07T08:05:16.656Z,1001.57
2016-11-07T08:05:57.334Z,1001.58
2016-11-07T08:06:38.063Z,1001.53
2016-11-07T08:07:18.786Z,1001.51
2016-11-07T08:07:59.478Z,1001.55
2016-11-07T08:08:40.184Z,1001.53
2016-11-07T08:09:20.823Z,1001.51
2016-11-07T08:10:01.696Z,1001.52
2016-11-07T08:10:42.440Z,1001.54
2016-11-07T08:11:23.175Z,1001.49
2016-11-07T08:12:03.884Z,1001.53
2016-11-07T08:12:44.637Z,1001.53
2016-11-07T08:13:25.314Z,1001.56
2016-11-07T08:14:05.972Z,1001.57
2016-11-07T08:14:46.709Z,1001.57